sensor_id;sensor_type;location;lat;lon;timestamp;temperature;humidity
10192;DHT22;17580;50.850;4.504;2023-04-25T00:01:02;9.00;45.10
10192;DHT22;17580;50.850;4.504;2023-04-25T00:03:30;9.00;47.30
10192;DHT22;17580;50.850;4.504;2023-04-25T00:05:57;9.00;47.00
10192;DHT22;17580;50.850;4.504;2023-04-25T00:08:29;9.00;46.30
10192;DHT22;17580;50.850;4.504;2023-04-25T00:10:56;9.00;46.10
10192;DHT22;17580;50.850;4.504;2023-04-25T00:13:23;9.00;46.30
10192;DHT22;17580;50.850;4.504;2023-04-25T00:15:51;9.00;45.50
10192;DHT22;17580;50.850;4.504;2023-04-25T00:18:18;9.00;46.60
10192;DHT22;17580;50.850;4.504;2023-04-25T00:20:45;9.00;46.60
10192;DHT22;17580;50.850;4.504;2023-04-25T00:23:13;9.00;47.00
10192;DHT22;17580;50.850;4.504;2023-04-25T00:25:44;9.00;44.80
10192;DHT22;17580;50.850;4.504;2023-04-25T00:28:12;9.00;46.30
10192;DHT22;17580;50.850;4.504;2023-04-25T00:30:39;9.00;47.70
10192;DHT22;17580;50.850;4.504;2023-04-25T00:33:07;9.00;46.60
10192;DHT22;17580;50.850;4.504;2023-04-25T00:35:34;9.00;46.80
10192;DHT22;17580;50.850;4.504;2023-04-25T00:38:01;9.00;47.60
10192;DHT22;17580;50.850;4.504;2023-04-25T00:40:29;9.00;48.20
10192;DHT22;17580;50.850;4.504;2023-04-25T00:42:57;9.00;49.40
10192;DHT22;17580;50.850;4.504;2023-04-25T00:45:27;8.90;49.60
10192;DHT22;17580;50.850;4.504;2023-04-25T00:47:55;9.00;48.40
10192;DHT22;17580;50.850;4.504;2023-04-25T00:50:22;9.00;49.60
10192;DHT22;17580;50.850;4.504;2023-04-25T00:52:49;9.00;49.50
10192;DHT22;17580;50.850;4.504;2023-04-25T00:55:16;8.90;50.80
10192;DHT22;17580;50.850;4.504;2023-04-25T00:57:43;8.90;51.00
10192;DHT22;17580;50.850;4.504;2023-04-25T01:00:12;8.80;53.40
10192;DHT22;17580;50.850;4.504;2023-04-25T01:02:40;8.80;51.60
10192;DHT22;17580;50.850;4.504;2023-04-25T01:05:08;8.80;53.30
10192;DHT22;17580;50.850;4.504;2023-04-25T01:07:35;8.70;54.30
10192;DHT22;17580;50.850;4.504;2023-04-25T01:10:02;8.80;55.10
10192;DHT22;17580;50.850;4.504;2023-04-25T01:12:29;8.70;55.20
10192;DHT22;17580;50.850;4.504;2023-04-25T01:14:56;8.70;56.20
10192;DHT22;17580;50.850;4.504;2023-04-25T01:17:25;8.70;56.60
10192;DHT22;17580;50.850;4.504;2023-04-25T01:19:52;8.70;56.90
10192;DHT22;17580;50.850;4.504;2023-04-25T01:22:21;8.60;57.20
10192;DHT22;17580;50.850;4.504;2023-04-25T01:24:48;8.60;57.70
10192;DHT22;17580;50.850;4.504;2023-04-25T01:27:15;8.60;57.50
10192;DHT22;17580;50.850;4.504;2023-04-25T01:29:43;8.60;58.60
10192;DHT22;17580;50.850;4.504;2023-04-25T01:32:10;8.60;58.20
10192;DHT22;17580;50.850;4.504;2023-04-25T01:34:37;8.60;57.20
10192;DHT22;17580;50.850;4.504;2023-04-25T01:37:04;8.70;57.80
10192;DHT22;17580;50.850;4.504;2023-04-25T01:39:33;8.70;58.90
10192;DHT22;17580;50.850;4.504;2023-04-25T01:42:00;8.70;58.60
10192;DHT22;17580;50.850;4.504;2023-04-25T01:44:27;8.70;57.50
10192;DHT22;17580;50.850;4.504;2023-04-25T01:46:54;8.70;57.90
10192;DHT22;17580;50.850;4.504;2023-04-25T01:49:21;8.60;59.10
10192;DHT22;17580;50.850;4.504;2023-04-25T01:51:49;8.70;58.80
10192;DHT22;17580;50.850;4.504;2023-04-25T01:54:17;8.70;58.90
10192;DHT22;17580;50.850;4.504;2023-04-25T01:56:50;8.70;55.10
10192;DHT22;17580;50.850;4.504;2023-04-25T01:59:19;8.60;59.00
10192;DHT22;17580;50.850;4.504;2023-04-25T02:01:47;8.60;60.60
10192;DHT22;17580;50.850;4.504;2023-04-25T02:04:14;8.70;59.30
10192;DHT22;17580;50.850;4.504;2023-04-25T02:06:41;8.60;60.30
10192;DHT22;17580;50.850;4.504;2023-04-25T02:09:08;8.60;60.80
10192;DHT22;17580;50.850;4.504;2023-04-25T02:11:35;8.60;60.40
10192;DHT22;17580;50.850;4.504;2023-04-25T02:14:03;8.50;60.90
10192;DHT22;17580;50.850;4.504;2023-04-25T02:16:30;8.50;61.20
10192;DHT22;17580;50.850;4.504;2023-04-25T02:18:57;8.40;61.00
10192;DHT22;17580;50.850;4.504;2023-04-25T02:21:24;8.30;60.40
10192;DHT22;17580;50.850;4.504;2023-04-25T02:23:52;8.30;59.00
10192;DHT22;17580;50.850;4.504;2023-04-25T02:26:19;8.10;56.10
10192;DHT22;17580;50.850;4.504;2023-04-25T02:28:46;8.10;56.20
10192;DHT22;17580;50.850;4.504;2023-04-25T02:31:14;8.10;55.60
10192;DHT22;17580;50.850;4.504;2023-04-25T02:33:42;8.10;55.80
10192;DHT22;17580;50.850;4.504;2023-04-25T02:36:09;8.10;56.20
10192;DHT22;17580;50.850;4.504;2023-04-25T02:38:36;8.00;58.80
10192;DHT22;17580;50.850;4.504;2023-04-25T02:41:03;8.00;60.90
10192;DHT22;17580;50.850;4.504;2023-04-25T02:43:30;8.00;61.30
10192;DHT22;17580;50.850;4.504;2023-04-25T02:45:56;8.00;60.50
10192;DHT22;17580;50.850;4.504;2023-04-25T02:48:25;8.00;61.40
10192;DHT22;17580;50.850;4.504;2023-04-25T02:50:52;8.00;62.30
10192;DHT22;17580;50.850;4.504;2023-04-25T02:53:19;8.10;61.00
10192;DHT22;17580;50.850;4.504;2023-04-25T02:55:46;8.10;61.50
10192;DHT22;17580;50.850;4.504;2023-04-25T02:58:14;8.00;62.50
10192;DHT22;17580;50.850;4.504;2023-04-25T03:00:41;7.90;63.30
10192;DHT22;17580;50.850;4.504;2023-04-25T03:03:08;7.90;65.00
10192;DHT22;17580;50.850;4.504;2023-04-25T03:05:36;8.00;65.60
10192;DHT22;17580;50.850;4.504;2023-04-25T03:08:03;8.00;65.00
10192;DHT22;17580;50.850;4.504;2023-04-25T03:10:30;8.00;65.10
10192;DHT22;17580;50.850;4.504;2023-04-25T03:12:57;8.00;64.60
10192;DHT22;17580;50.850;4.504;2023-04-25T03:15:24;8.00;65.30
10192;DHT22;17580;50.850;4.504;2023-04-25T03:17:52;8.00;66.30
10192;DHT22;17580;50.850;4.504;2023-04-25T03:20:19;8.00;67.30
10192;DHT22;17580;50.850;4.504;2023-04-25T03:22:47;8.00;68.00
10192;DHT22;17580;50.850;4.504;2023-04-25T03:25:14;8.10;69.20
10192;DHT22;17580;50.850;4.504;2023-04-25T03:27:41;8.10;67.30
10192;DHT22;17580;50.850;4.504;2023-04-25T03:30:08;8.10;68.40
10192;DHT22;17580;50.850;4.504;2023-04-25T03:32:35;8.10;68.50
10192;DHT22;17580;50.850;4.504;2023-04-25T03:35:03;8.20;68.20
10192;DHT22;17580;50.850;4.504;2023-04-25T03:37:30;8.20;66.10
10192;DHT22;17580;50.850;4.504;2023-04-25T03:39:59;8.30;65.30
10192;DHT22;17580;50.850;4.504;2023-04-25T03:42:26;8.20;67.00
10192;DHT22;17580;50.850;4.504;2023-04-25T03:44:53;8.30;66.40
10192;DHT22;17580;50.850;4.504;2023-04-25T03:47:20;8.20;65.90
10192;DHT22;17580;50.850;4.504;2023-04-25T03:49:47;8.20;65.20
10192;DHT22;17580;50.850;4.504;2023-04-25T03:52:15;8.20;65.80
10192;DHT22;17580;50.850;4.504;2023-04-25T03:54:41;8.10;64.10
10192;DHT22;17580;50.850;4.504;2023-04-25T03:57:10;8.00;63.30
10192;DHT22;17580;50.850;4.504;2023-04-25T03:59:37;7.90;62.40
10192;DHT22;17580;50.850;4.504;2023-04-25T04:02:04;7.80;62.30
10192;DHT22;17580;50.850;4.504;2023-04-25T04:04:31;7.80;62.00
10192;DHT22;17580;50.850;4.504;2023-04-25T04:06:58;7.70;62.60
10192;DHT22;17580;50.850;4.504;2023-04-25T04:09:25;7.70;61.90
10192;DHT22;17580;50.850;4.504;2023-04-25T04:11:53;7.70;59.50
10192;DHT22;17580;50.850;4.504;2023-04-25T04:14:21;7.70;61.30
10192;DHT22;17580;50.850;4.504;2023-04-25T04:16:48;7.60;60.60
10192;DHT22;17580;50.850;4.504;2023-04-25T04:19:15;7.60;60.80
10192;DHT22;17580;50.850;4.504;2023-04-25T04:21:42;7.60;58.90
10192;DHT22;17580;50.850;4.504;2023-04-25T04:24:09;7.60;62.40
10192;DHT22;17580;50.850;4.504;2023-04-25T04:26:36;7.50;61.20
10192;DHT22;17580;50.850;4.504;2023-04-25T04:29:04;7.50;61.10
10192;DHT22;17580;50.850;4.504;2023-04-25T04:31:34;7.50;60.30
10192;DHT22;17580;50.850;4.504;2023-04-25T04:34:01;7.50;61.20
10192;DHT22;17580;50.850;4.504;2023-04-25T04:36:29;7.50;60.00
10192;DHT22;17580;50.850;4.504;2023-04-25T04:38:56;7.50;63.10
10192;DHT22;17580;50.850;4.504;2023-04-25T04:41:23;7.50;65.20
10192;DHT22;17580;50.850;4.504;2023-04-25T04:43:50;7.50;63.00
10192;DHT22;17580;50.850;4.504;2023-04-25T04:46:18;7.50;63.40
10192;DHT22;17580;50.850;4.504;2023-04-25T04:48:47;7.50;63.40
10192;DHT22;17580;50.850;4.504;2023-04-25T04:51:14;7.60;63.70
10192;DHT22;17580;50.850;4.504;2023-04-25T04:53:40;7.50;63.80
10192;DHT22;17580;50.850;4.504;2023-04-25T04:56:07;7.50;66.00
10192;DHT22;17580;50.850;4.504;2023-04-25T04:58:34;7.50;63.90
10192;DHT22;17580;50.850;4.504;2023-04-25T05:01:02;7.50;65.00
10192;DHT22;17580;50.850;4.504;2023-04-25T05:03:29;7.50;64.70
10192;DHT22;17580;50.850;4.504;2023-04-25T05:05:57;7.60;64.70
10192;DHT22;17580;50.850;4.504;2023-04-25T05:08:24;7.60;65.30
10192;DHT22;17580;50.850;4.504;2023-04-25T05:10:51;7.60;66.00
10192;DHT22;17580;50.850;4.504;2023-04-25T05:13:18;7.60;66.10
10192;DHT22;17580;50.850;4.504;2023-04-25T05:15:45;7.60;66.10
10192;DHT22;17580;50.850;4.504;2023-04-25T05:18:12;7.60;66.40
10192;DHT22;17580;50.850;4.504;2023-04-25T05:20:39;7.60;63.70
10192;DHT22;17580;50.850;4.504;2023-04-25T05:23:08;7.50;60.60
10192;DHT22;17580;50.850;4.504;2023-04-25T05:25:35;7.40;61.50
10192;DHT22;17580;50.850;4.504;2023-04-25T05:28:02;7.30;63.50
10192;DHT22;17580;50.850;4.504;2023-04-25T05:30:29;7.40;63.10
10192;DHT22;17580;50.850;4.504;2023-04-25T05:32:56;7.40;60.60
10192;DHT22;17580;50.850;4.504;2023-04-25T05:35:23;7.50;62.00
10192;DHT22;17580;50.850;4.504;2023-04-25T05:37:50;7.50;59.40
10192;DHT22;17580;50.850;4.504;2023-04-25T05:40:18;7.40;60.70
10192;DHT22;17580;50.850;4.504;2023-04-25T05:42:45;7.40;61.00
10192;DHT22;17580;50.850;4.504;2023-04-25T05:45:12;7.40;62.60
10192;DHT22;17580;50.850;4.504;2023-04-25T05:47:39;7.40;62.40
10192;DHT22;17580;50.850;4.504;2023-04-25T05:50:07;7.40;63.90
10192;DHT22;17580;50.850;4.504;2023-04-25T05:52:35;7.50;64.20
10192;DHT22;17580;50.850;4.504;2023-04-25T05:55:02;7.50;63.10
10192;DHT22;17580;50.850;4.504;2023-04-25T05:57:31;7.50;62.40
10192;DHT22;17580;50.850;4.504;2023-04-25T05:59:58;7.50;63.60
10192;DHT22;17580;50.850;4.504;2023-04-25T06:02:25;7.50;64.60
10192;DHT22;17580;50.850;4.504;2023-04-25T06:04:52;7.50;64.10
10192;DHT22;17580;50.850;4.504;2023-04-25T06:07:19;7.60;65.00
10192;DHT22;17580;50.850;4.504;2023-04-25T06:09:46;7.70;64.70
10192;DHT22;17580;50.850;4.504;2023-04-25T06:12:13;7.70;63.30
10192;DHT22;17580;50.850;4.504;2023-04-25T06:14:41;7.70;64.60
10192;DHT22;17580;50.850;4.504;2023-04-25T06:17:08;7.70;65.20
10192;DHT22;17580;50.850;4.504;2023-04-25T06:19:35;7.80;66.90
10192;DHT22;17580;50.850;4.504;2023-04-25T06:22:03;7.80;66.60
10192;DHT22;17580;50.850;4.504;2023-04-25T06:24:29;7.80;66.40
10192;DHT22;17580;50.850;4.504;2023-04-25T06:26:56;7.80;66.00
10192;DHT22;17580;50.850;4.504;2023-04-25T06:29:23;8.00;66.90
10192;DHT22;17580;50.850;4.504;2023-04-25T06:31:52;8.00;65.20
10192;DHT22;17580;50.850;4.504;2023-04-25T06:34:19;8.10;63.80
10192;DHT22;17580;50.850;4.504;2023-04-25T06:36:46;8.10;62.70
10192;DHT22;17580;50.850;4.504;2023-04-25T06:39:13;8.20;63.10
10192;DHT22;17580;50.850;4.504;2023-04-25T06:41:40;8.30;64.20
10192;DHT22;17580;50.850;4.504;2023-04-25T06:44:06;8.40;59.20
10192;DHT22;17580;50.850;4.504;2023-04-25T06:46:33;8.40;60.90
10192;DHT22;17580;50.850;4.504;2023-04-25T06:49:03;8.50;60.50
10192;DHT22;17580;50.850;4.504;2023-04-25T06:51:30;8.60;58.80
10192;DHT22;17580;50.850;4.504;2023-04-25T06:53:57;8.70;58.30
10192;DHT22;17580;50.850;4.504;2023-04-25T06:56:24;8.70;59.40
10192;DHT22;17580;50.850;4.504;2023-04-25T06:58:51;8.70;57.60
10192;DHT22;17580;50.850;4.504;2023-04-25T07:01:18;8.60;56.90
10192;DHT22;17580;50.850;4.504;2023-04-25T07:03:44;8.60;57.20
10192;DHT22;17580;50.850;4.504;2023-04-25T07:06:13;8.70;57.70
10192;DHT22;17580;50.850;4.504;2023-04-25T07:08:40;8.80;58.80
10192;DHT22;17580;50.850;4.504;2023-04-25T07:11:07;8.70;58.10
10192;DHT22;17580;50.850;4.504;2023-04-25T07:13:34;8.70;59.00
10192;DHT22;17580;50.850;4.504;2023-04-25T07:16:01;8.70;57.10
10192;DHT22;17580;50.850;4.504;2023-04-25T07:18:28;8.80;56.20
10192;DHT22;17580;50.850;4.504;2023-04-25T07:20:55;8.80;55.30
10192;DHT22;17580;50.850;4.504;2023-04-25T07:23:23;8.70;55.30
10192;DHT22;17580;50.850;4.504;2023-04-25T07:25:50;8.80;54.10
10192;DHT22;17580;50.850;4.504;2023-04-25T07:28:17;8.90;54.40
10192;DHT22;17580;50.850;4.504;2023-04-25T07:30:44;9.00;55.30
10192;DHT22;17580;50.850;4.504;2023-04-25T07:33:11;9.00;53.20
10192;DHT22;17580;50.850;4.504;2023-04-25T07:35:38;9.00;54.60
10192;DHT22;17580;50.850;4.504;2023-04-25T07:38:05;9.00;56.50
10192;DHT22;17580;50.850;4.504;2023-04-25T07:40:34;9.10;53.40
10192;DHT22;17580;50.850;4.504;2023-04-25T07:43:01;9.00;52.60
10192;DHT22;17580;50.850;4.504;2023-04-25T07:45:28;9.20;54.50
10192;DHT22;17580;50.850;4.504;2023-04-25T07:47:55;9.40;53.30
10192;DHT22;17580;50.850;4.504;2023-04-25T07:50:22;9.50;49.30
10192;DHT22;17580;50.850;4.504;2023-04-25T07:52:49;9.60;47.40
10192;DHT22;17580;50.850;4.504;2023-04-25T07:55:16;9.60;46.20
10192;DHT22;17580;50.850;4.504;2023-04-25T07:57:45;9.60;46.50
10192;DHT22;17580;50.850;4.504;2023-04-25T08:00:13;9.60;46.10
10192;DHT22;17580;50.850;4.504;2023-04-25T08:02:40;9.90;47.80
10192;DHT22;17580;50.850;4.504;2023-04-25T08:05:08;10.00;42.50
10192;DHT22;17580;50.850;4.504;2023-04-25T08:07:37;9.80;43.90
10192;DHT22;17580;50.850;4.504;2023-04-25T08:10:05;10.10;46.20
10192;DHT22;17580;50.850;4.504;2023-04-25T08:12:33;10.20;47.80
10192;DHT22;17580;50.850;4.504;2023-04-25T08:15:01;10.10;45.60
10192;DHT22;17580;50.850;4.504;2023-04-25T08:17:28;10.20;42.00
10192;DHT22;17580;50.850;4.504;2023-04-25T08:19:55;10.10;40.70
10192;DHT22;17580;50.850;4.504;2023-04-25T08:22:22;10.30;45.40
10192;DHT22;17580;50.850;4.504;2023-04-25T08:24:49;10.40;42.80
10192;DHT22;17580;50.850;4.504;2023-04-25T08:27:17;10.60;41.00
10192;DHT22;17580;50.850;4.504;2023-04-25T08:29:46;10.60;39.40
10192;DHT22;17580;50.850;4.504;2023-04-25T08:32:14;10.80;40.80
10192;DHT22;17580;50.850;4.504;2023-04-25T08:34:41;10.90;37.50
10192;DHT22;17580;50.850;4.504;2023-04-25T08:37:09;11.00;40.40
10192;DHT22;17580;50.850;4.504;2023-04-25T08:39:36;10.80;36.10
10192;DHT22;17580;50.850;4.504;2023-04-25T08:42:06;10.80;40.40
10192;DHT22;17580;50.850;4.504;2023-04-25T08:44:34;10.80;39.30
10192;DHT22;17580;50.850;4.504;2023-04-25T08:47:03;10.70;36.50
10192;DHT22;17580;50.850;4.504;2023-04-25T08:49:32;10.50;37.30
10192;DHT22;17580;50.850;4.504;2023-04-25T08:52:00;10.50;38.30
10192;DHT22;17580;50.850;4.504;2023-04-25T08:54:28;10.40;36.00
10192;DHT22;17580;50.850;4.504;2023-04-25T08:56:57;10.50;38.10
10192;DHT22;17580;50.850;4.504;2023-04-25T08:59:24;10.50;38.20
10192;DHT22;17580;50.850;4.504;2023-04-25T09:01:51;10.90;38.70
10192;DHT22;17580;50.850;4.504;2023-04-25T09:04:18;10.80;37.40
10192;DHT22;17580;50.850;4.504;2023-04-25T09:06:47;10.80;38.40
10192;DHT22;17580;50.850;4.504;2023-04-25T09:09:14;10.80;38.10
10192;DHT22;17580;50.850;4.504;2023-04-25T09:11:41;10.60;35.00
10192;DHT22;17580;50.850;4.504;2023-04-25T09:14:15;12.20;37.90
10192;DHT22;17580;50.850;4.504;2023-04-25T09:17:00;14.10;30.10
10192;DHT22;17580;50.850;4.504;2023-04-25T09:19:29;13.90;26.30
10192;DHT22;17580;50.850;4.504;2023-04-25T09:21:59;13.40;28.80
10192;DHT22;17580;50.850;4.504;2023-04-25T09:24:34;13.40;29.10
10192;DHT22;17580;50.850;4.504;2023-04-25T09:27:05;13.00;30.10
10192;DHT22;17580;50.850;4.504;2023-04-25T09:29:33;12.60;30.40
10192;DHT22;17580;50.850;4.504;2023-04-25T09:32:15;12.10;30.00
10192;DHT22;17580;50.850;4.504;2023-04-25T09:34:44;11.50;27.90
10192;DHT22;17580;50.850;4.504;2023-04-25T09:37:17;10.90;28.00
10192;DHT22;17580;50.850;4.504;2023-04-25T09:39:46;10.50;29.40
10192;DHT22;17580;50.850;4.504;2023-04-25T09:42:14;10.30;28.70
10192;DHT22;17580;50.850;4.504;2023-04-25T09:44:45;10.30;28.90
10192;DHT22;17580;50.850;4.504;2023-04-25T09:47:13;10.40;27.80
10192;DHT22;17580;50.850;4.504;2023-04-25T09:49:41;10.60;28.00
10192;DHT22;17580;50.850;4.504;2023-04-25T09:52:11;12.30;28.30
10192;DHT22;17580;50.850;4.504;2023-04-25T09:54:41;13.80;27.20
10192;DHT22;17580;50.850;4.504;2023-04-25T09:57:11;13.90;25.50
10192;DHT22;17580;50.850;4.504;2023-04-25T09:59:39;13.60;23.90
10192;DHT22;17580;50.850;4.504;2023-04-25T10:02:09;14.60;23.50
10192;DHT22;17580;50.850;4.504;2023-04-25T10:04:38;14.50;22.80
10192;DHT22;17580;50.850;4.504;2023-04-25T10:07:06;14.50;18.70
10192;DHT22;17580;50.850;4.504;2023-04-25T10:09:33;14.30;20.20
10192;DHT22;17580;50.850;4.504;2023-04-25T10:12:05;13.50;20.00
10192;DHT22;17580;50.850;4.504;2023-04-25T10:14:32;12.70;22.10
10192;DHT22;17580;50.850;4.504;2023-04-25T10:17:00;12.30;22.10
10192;DHT22;17580;50.850;4.504;2023-04-25T10:19:28;12.30;21.90
10192;DHT22;17580;50.850;4.504;2023-04-25T10:22:02;12.30;22.90
10192;DHT22;17580;50.850;4.504;2023-04-25T10:24:30;12.20;21.50
10192;DHT22;17580;50.850;4.504;2023-04-25T10:26:57;13.00;24.60
10192;DHT22;17580;50.850;4.504;2023-04-25T10:29:26;15.00;19.50
10192;DHT22;17580;50.850;4.504;2023-04-25T10:31:53;17.00;18.30
10192;DHT22;17580;50.850;4.504;2023-04-25T10:34:24;17.60;17.80
10192;DHT22;17580;50.850;4.504;2023-04-25T10:36:52;17.00;13.80
10192;DHT22;17580;50.850;4.504;2023-04-25T10:39:24;15.50;12.80
10192;DHT22;17580;50.850;4.504;2023-04-25T10:41:57;14.40;12.60
10192;DHT22;17580;50.850;4.504;2023-04-25T10:44:28;14.00;13.40
10192;DHT22;17580;50.850;4.504;2023-04-25T10:46:55;13.80;16.40
10192;DHT22;17580;50.850;4.504;2023-04-25T10:49:31;14.10;14.70
10192;DHT22;17580;50.850;4.504;2023-04-25T10:52:15;14.20;17.60
10192;DHT22;17580;50.850;4.504;2023-04-25T10:54:46;14.30;15.20
10192;DHT22;17580;50.850;4.504;2023-04-25T10:57:30;14.00;14.10
10192;DHT22;17580;50.850;4.504;2023-04-25T11:00:17;14.20;15.50
10192;DHT22;17580;50.850;4.504;2023-04-25T11:02:46;13.80;15.40
10192;DHT22;17580;50.850;4.504;2023-04-25T11:05:22;13.50;14.00
10192;DHT22;17580;50.850;4.504;2023-04-25T11:07:51;13.20;14.20
10192;DHT22;17580;50.850;4.504;2023-04-25T11:10:18;12.90;15.70
10192;DHT22;17580;50.850;4.504;2023-04-25T11:12:45;12.90;16.00
10192;DHT22;17580;50.850;4.504;2023-04-25T11:15:13;12.80;16.20
10192;DHT22;17580;50.850;4.504;2023-04-25T11:17:41;12.50;16.00
10192;DHT22;17580;50.850;4.504;2023-04-25T11:20:10;12.20;18.10
10192;DHT22;17580;50.850;4.504;2023-04-25T11:22:40;11.90;18.80
10192;DHT22;17580;50.850;4.504;2023-04-25T11:25:09;12.00;21.00
10192;DHT22;17580;50.850;4.504;2023-04-25T11:27:49;11.70;21.00
10192;DHT22;17580;50.850;4.504;2023-04-25T11:30:17;11.60;22.20
10192;DHT22;17580;50.850;4.504;2023-04-25T11:32:45;11.80;22.50
10192;DHT22;17580;50.850;4.504;2023-04-25T11:35:13;12.10;21.90
10192;DHT22;17580;50.850;4.504;2023-04-25T11:37:41;12.40;20.90
10192;DHT22;17580;50.850;4.504;2023-04-25T11:40:09;13.90;21.20
10192;DHT22;17580;50.850;4.504;2023-04-25T11:42:37;14.30;19.20
10192;DHT22;17580;50.850;4.504;2023-04-25T11:45:06;14.20;18.30
10192;DHT22;17580;50.850;4.504;2023-04-25T11:47:33;14.30;16.00
10192;DHT22;17580;50.850;4.504;2023-04-25T11:50:03;14.20;18.80
10192;DHT22;17580;50.850;4.504;2023-04-25T11:52:40;14.70;16.30
10192;DHT22;17580;50.850;4.504;2023-04-25T11:55:09;14.90;15.90
10192;DHT22;17580;50.850;4.504;2023-04-25T11:57:38;14.60;17.70
10192;DHT22;17580;50.850;4.504;2023-04-25T12:00:08;15.10;16.00
10192;DHT22;17580;50.850;4.504;2023-04-25T12:02:36;15.20;15.00
10192;DHT22;17580;50.850;4.504;2023-04-25T12:05:08;15.30;16.90
10192;DHT22;17580;50.850;4.504;2023-04-25T12:07:35;16.60;14.00
10192;DHT22;17580;50.850;4.504;2023-04-25T12:10:07;16.40;11.60
10192;DHT22;17580;50.850;4.504;2023-04-25T12:12:35;16.10;12.40
10192;DHT22;17580;50.850;4.504;2023-04-25T12:15:12;15.50;14.70
10192;DHT22;17580;50.850;4.504;2023-04-25T12:17:41;16.90;8.50
10192;DHT22;17580;50.850;4.504;2023-04-25T12:20:13;16.40;5.80
10192;DHT22;17580;50.850;4.504;2023-04-25T12:22:41;15.40;7.90
10192;DHT22;17580;50.850;4.504;2023-04-25T12:25:11;14.80;8.90
10192;DHT22;17580;50.850;4.504;2023-04-25T12:27:39;15.00;13.60
10192;DHT22;17580;50.850;4.504;2023-04-25T12:30:08;15.10;14.70
10192;DHT22;17580;50.850;4.504;2023-04-25T12:32:36;15.30;11.40
10192;DHT22;17580;50.850;4.504;2023-04-25T12:35:04;15.40;8.90
10192;DHT22;17580;50.850;4.504;2023-04-25T12:37:33;16.20;8.90
10192;DHT22;17580;50.850;4.504;2023-04-25T12:40:00;15.90;5.80
10192;DHT22;17580;50.850;4.504;2023-04-25T12:42:29;15.70;6.10
10192;DHT22;17580;50.850;4.504;2023-04-25T12:44:56;16.50;5.00
10192;DHT22;17580;50.850;4.504;2023-04-25T12:47:23;15.80;4.60
10192;DHT22;17580;50.850;4.504;2023-04-25T12:49:50;15.70;7.40
10192;DHT22;17580;50.850;4.504;2023-04-25T12:52:17;15.70;6.70
10192;DHT22;17580;50.850;4.504;2023-04-25T12:54:45;15.90;5.90
10192;DHT22;17580;50.850;4.504;2023-04-25T12:57:12;16.40;7.70
10192;DHT22;17580;50.850;4.504;2023-04-25T12:59:39;16.80;7.90
10192;DHT22;17580;50.850;4.504;2023-04-25T13:02:06;16.00;4.00
10192;DHT22;17580;50.850;4.504;2023-04-25T13:04:33;15.50;4.10
10192;DHT22;17580;50.850;4.504;2023-04-25T13:07:00;15.10;4.00
10192;DHT22;17580;50.850;4.504;2023-04-25T13:09:27;14.60;5.70
10192;DHT22;17580;50.850;4.504;2023-04-25T13:11:55;13.90;6.70
10192;DHT22;17580;50.850;4.504;2023-04-25T13:14:23;13.50;6.80
10192;DHT22;17580;50.850;4.504;2023-04-25T13:16:50;13.30;9.30
10192;DHT22;17580;50.850;4.504;2023-04-25T13:19:17;13.20;9.90
10192;DHT22;17580;50.850;4.504;2023-04-25T13:21:44;13.60;10.30
10192;DHT22;17580;50.850;4.504;2023-04-25T13:24:11;14.50;12.60
10192;DHT22;17580;50.850;4.504;2023-04-25T13:26:38;15.00;7.40
10192;DHT22;17580;50.850;4.504;2023-04-25T13:29:06;14.80;6.80
10192;DHT22;17580;50.850;4.504;2023-04-25T13:31:33;14.80;6.50
10192;DHT22;17580;50.850;4.504;2023-04-25T13:34:00;14.70;10.00
10192;DHT22;17580;50.850;4.504;2023-04-25T13:36:27;14.00;7.90
10192;DHT22;17580;50.850;4.504;2023-04-25T13:38:54;13.70;10.60
10192;DHT22;17580;50.850;4.504;2023-04-25T13:41:21;13.70;10.00
10192;DHT22;17580;50.850;4.504;2023-04-25T13:43:48;14.00;9.00
10192;DHT22;17580;50.850;4.504;2023-04-25T13:46:16;14.50;7.70
10192;DHT22;17580;50.850;4.504;2023-04-25T13:48:43;14.90;8.10
10192;DHT22;17580;50.850;4.504;2023-04-25T13:51:15;15.00;7.90
10192;DHT22;17580;50.850;4.504;2023-04-25T13:53:43;14.90;8.60
10192;DHT22;17580;50.850;4.504;2023-04-25T13:56:10;14.70;9.80
10192;DHT22;17580;50.850;4.504;2023-04-25T13:58:38;14.50;9.70
10192;DHT22;17580;50.850;4.504;2023-04-25T14:01:04;14.40;8.50
10192;DHT22;17580;50.850;4.504;2023-04-25T14:03:33;14.20;8.50
10192;DHT22;17580;50.850;4.504;2023-04-25T14:06:00;13.70;7.90
10192;DHT22;17580;50.850;4.504;2023-04-25T14:08:27;13.30;9.00
10192;DHT22;17580;50.850;4.504;2023-04-25T14:10:54;12.90;9.60
10192;DHT22;17580;50.850;4.504;2023-04-25T14:13:21;13.20;11.20
10192;DHT22;17580;50.850;4.504;2023-04-25T14:15:49;13.30;9.60
10192;DHT22;17580;50.850;4.504;2023-04-25T14:18:17;13.40;8.70
10192;DHT22;17580;50.850;4.504;2023-04-25T14:20:45;13.90;9.60
10192;DHT22;17580;50.850;4.504;2023-04-25T14:23:12;14.40;11.40
10192;DHT22;17580;50.850;4.504;2023-04-25T14:25:39;14.10;7.00
10192;DHT22;17580;50.850;4.504;2023-04-25T14:28:07;14.10;8.00
10192;DHT22;17580;50.850;4.504;2023-04-25T14:30:34;14.00;6.40
10192;DHT22;17580;50.850;4.504;2023-04-25T14:33:01;13.60;6.80
10192;DHT22;17580;50.850;4.504;2023-04-25T14:35:28;13.50;8.70
10192;DHT22;17580;50.850;4.504;2023-04-25T14:37:57;13.80;7.90
10192;DHT22;17580;50.850;4.504;2023-04-25T14:40:24;13.60;4.70
10192;DHT22;17580;50.850;4.504;2023-04-25T14:42:51;13.50;3.70
10192;DHT22;17580;50.850;4.504;2023-04-25T14:45:18;13.40;6.60
10192;DHT22;17580;50.850;4.504;2023-04-25T14:47:45;13.70;6.30
10192;DHT22;17580;50.850;4.504;2023-04-25T14:50:12;13.70;5.30
10192;DHT22;17580;50.850;4.504;2023-04-25T14:52:39;13.50;5.30
10192;DHT22;17580;50.850;4.504;2023-04-25T14:55:08;13.50;8.70
10192;DHT22;17580;50.850;4.504;2023-04-25T14:57:35;13.30;8.90
10192;DHT22;17580;50.850;4.504;2023-04-25T15:00:03;13.20;10.20
10192;DHT22;17580;50.850;4.504;2023-04-25T15:02:34;13.00;9.40
10192;DHT22;17580;50.850;4.504;2023-04-25T15:05:01;13.00;8.90
10192;DHT22;17580;50.850;4.504;2023-04-25T15:07:28;13.30;8.40
10192;DHT22;17580;50.850;4.504;2023-04-25T15:09:56;13.40;4.70
10192;DHT22;17580;50.850;4.504;2023-04-25T15:12:24;13.30;5.80
10192;DHT22;17580;50.850;4.504;2023-04-25T15:14:53;13.20;9.80
10192;DHT22;17580;50.850;4.504;2023-04-25T15:17:21;13.40;6.40
10192;DHT22;17580;50.850;4.504;2023-04-25T15:19:48;13.20;7.30
10192;DHT22;17580;50.850;4.504;2023-04-25T15:22:15;12.80;5.60
10192;DHT22;17580;50.850;4.504;2023-04-25T15:24:42;12.60;8.00
10192;DHT22;17580;50.850;4.504;2023-04-25T15:27:09;12.70;8.20
10192;DHT22;17580;50.850;4.504;2023-04-25T15:29:38;12.80;8.60
10192;DHT22;17580;50.850;4.504;2023-04-25T15:32:05;12.30;8.00
10192;DHT22;17580;50.850;4.504;2023-04-25T15:34:32;12.20;7.90
10192;DHT22;17580;50.850;4.504;2023-04-25T15:36:59;12.20;8.50
10192;DHT22;17580;50.850;4.504;2023-04-25T15:39:26;12.40;7.80
10192;DHT22;17580;50.850;4.504;2023-04-25T15:41:53;12.40;9.30
10192;DHT22;17580;50.850;4.504;2023-04-25T15:44:20;12.50;8.10
10192;DHT22;17580;50.850;4.504;2023-04-25T15:46:49;12.50;7.60